Time;durP1;ratioP1;P1;durP2;ratioP2;P2;SDS_P1;SDS_P2;PMS_P1;PMS_P2;Temp;Humidity;BMP_temperature;BMP_pressure;BME280_temperature;BME280_humidity;BME280_pressure;Samples;Min_cycle;Max_cycle;Signal;HPM_P1;HPM_P2
2023/07/02 00:00:29;;;;;;;36.50;13.90;;;;;;;17.88;100.00;100709.63;5084835;28;20028;-73
2023/07/02 00:02:55;;;;;;;32.03;12.53;;;;;;;17.90;99.42;100712.16;5068099;28;20034;-73
2023/07/02 00:05:21;;;;;;;30.03;11.23;;;;;;;17.88;99.22;100698.53;5087595;28;20063;-74
2023/07/02 00:07:46;;;;;;;;;;;;;;;17.87;98.96;100707.13;5067255;28;20027;-73
2023/07/02 00:10:12;;;;;;;33.65;11.68;;;;;;;17.86;98.86;100710.97;5066156;28;19913;-73
2023/07/02 00:12:37;;;;;;;27.40;10.20;;;;;;;17.82;96.55;100710.63;5065944;28;20062;-73
2023/07/02 00:15:03;;;;;;;24.77;8.90;;;;;;;17.85;95.88;100712.06;5069553;28;20503;-73
2023/07/02 00:17:29;;;;;;;21.83;7.90;;;;;;;17.78;94.79;100722.47;5066889;28;20107;-74
2023/07/02 00:19:55;;;;;;;17.43;6.73;;;;;;;17.68;92.53;100723.13;5093759;28;20365;-74
2023/07/02 00:22:21;;;;;;;21.93;7.60;;;;;;;17.59;90.36;100718.19;5094525;28;20395;-74
2023/07/02 00:24:47;;;;;;;;;;;;;;;17.55;88.83;100726.16;5093426;28;20020;-74
2023/07/02 00:27:12;;;;;;;21.17;6.20;;;;;;;17.44;85.00;100723.44;5092181;28;19915;-73
2023/07/02 00:29:38;;;;;;;12.67;6.33;;;;;;;17.38;84.32;100729.88;5092884;28;20024;-73
2023/07/02 00:32:04;;;;;;;19.40;6.47;;;;;;;17.25;83.19;100724.63;5087098;28;20099;-73
2023/07/02 00:34:29;;;;;;;19.20;7.00;;;;;;;17.25;77.99;100719.94;5089068;28;20590;-73
2023/07/02 00:36:55;;;;;;;20.53;7.97;;;;;;;17.22;77.93;100728.72;5092084;28;20036;-74
2023/07/02 00:39:20;;;;;;;19.73;7.60;;;;;;;17.15;76.96;100725.25;5091601;28;20068;-73
2023/07/02 00:41:49;;;;;;;16.77;6.77;;;;;;;17.13;77.86;100724.63;5089954;28;20477;-73
2023/07/02 00:44:14;;;;;;;28.58;7.95;;;;;;;17.06;76.56;100720.31;5091346;28;20032;-73
2023/07/02 00:46:41;;;;;;;21.37;7.57;;;;;;;17.04;77.56;100730.81;5090275;28;20024;-73
2023/07/02 00:49:07;;;;;;;;;;;;;;;17.05;76.70;100725.03;5070025;28;20032;-73
2023/07/02 00:51:33;;;;;;;22.95;8.38;;;;;;;17.15;76.02;100727.19;5091596;28;20297;-73
2023/07/02 00:53:59;;;;;;;17.57;7.93;;;;;;;17.09;75.38;100728.16;5092783;28;20024;-73
2023/07/02 00:56:25;;;;;;;25.53;8.10;;;;;;;17.12;76.09;100730.44;5090786;28;20045;-74
2023/07/02 00:58:52;;;;;;;;;;;;;;;17.14;74.04;100731.03;5090515;28;20467;-74
2023/07/02 01:01:22;;;;;;;25.02;8.93;;;;;;;17.13;73.48;100734.91;5072505;28;20349;-73
2023/07/02 01:04:04;;;;;;;24.73;8.15;;;;;;;17.11;73.00;100734.28;5055864;28;20102;-73
2023/07/02 01:06:32;;;;;;;24.02;8.35;;;;;;;17.09;73.65;100726.25;5085296;28;20082;-73
2023/07/02 01:09:00;;;;;;;22.52;7.50;;;;;;;17.08;74.83;100730.06;5070563;28;20042;-73
2023/07/02 01:11:31;;;;;;;24.85;8.60;;;;;;;17.02;74.08;100741.28;5068694;28;20480;-74
2023/07/02 01:14:05;;;;;;;32.05;9.18;;;;;;;16.99;74.04;100742.59;5089130;28;20035;-74
2023/07/02 01:16:32;;;;;;;23.00;7.63;;;;;;;16.97;73.54;100743.94;5085810;28;20838;-73
2023/07/02 01:19:03;;;;;;;26.95;9.00;;;;;;;17.02;73.81;100753.19;5088815;28;20032;-73
2023/07/02 01:21:31;;;;;;;26.17;8.60;;;;;;;17.04;71.05;100759.34;5091244;28;20027;-74
2023/07/02 01:24:00;;;;;;;21.25;7.82;;;;;;;17.02;70.42;100752.34;5090482;28;20375;-73
2023/07/02 01:26:29;;;;;;;27.48;9.27;;;;;;;17.02;71.12;100749.59;5087540;28;20503;-73
2023/07/02 01:28:54;;;;;;;25.80;8.80;;;;;;;17.01;70.97;100756.19;5090515;28;20103;-73
2023/07/02 01:31:24;;;;;;;22.77;8.27;;;;;;;17.03;70.17;100754.84;5087710;28;20478;-74
2023/07/02 01:33:50;;;;;;;22.85;8.23;;;;;;;17.00;69.00;100754.50;5087563;28;20031;-73
2023/07/02 01:36:18;;;;;;;24.17;8.53;;;;;;;16.99;68.61;100747.28;5091175;28;20060;-72
2023/07/02 01:38:47;;;;;;;30.58;8.45;;;;;;;16.91;67.56;100759.56;5089384;28;20032;-74
2023/07/02 01:41:12;;;;;;;27.70;8.70;;;;;;;16.89;67.06;100758.09;5068966;28;20479;-74
2023/07/02 01:43:38;;;;;;;20.77;8.30;;;;;;;16.78;67.67;100753.41;5070406;28;20072;-74
2023/07/02 01:46:03;;;;;;;18.57;7.20;;;;;;;16.79;67.49;100752.31;5054116;28;20032;-73
2023/07/02 01:48:29;;;;;;;20.63;8.33;;;;;;;16.73;67.57;100751.38;5088912;28;20031;-74
2023/07/02 01:50:54;;;;;;;22.03;8.70;;;;;;;16.66;66.83;100753.41;5068509;28;20111;-74
2023/07/02 01:53:20;;;;;;;25.10;8.33;;;;;;;16.62;68.16;100756.91;5068588;28;20039;-73
2023/07/02 01:55:45;;;;;;;21.63;9.20;;;;;;;16.63;67.71;100753.91;5068958;28;20124;-73
2023/07/02 01:58:11;;;;;;;22.95;8.60;;;;;;;16.60;67.36;100750.78;5089602;28;20115;-73
2023/07/02 02:00:37;;;;;;;25.93;9.97;;;;;;;16.58;66.81;100747.38;5067733;28;20031;-73
2023/07/02 02:03:04;;;;;;;31.17;8.63;;;;;;;16.59;66.90;100746.31;5088091;28;20093;-73
2023/07/02 02:05:29;;;;;;;23.73;9.40;;;;;;;16.60;66.80;100759.88;5068844;28;20040;-73
2023/07/02 02:07:54;;;;;;;31.60;9.07;;;;;;;16.57;66.15;100759.53;5091274;28;20028;-73
2023/07/02 02:10:20;;;;;;;30.73;8.87;;;;;;;16.61;65.65;100755.22;5092034;28;20036;-73
2023/07/02 02:12:45;;;;;;;24.60;9.07;;;;;;;16.63;66.24;100764.09;5091261;28;20494;-73
2023/07/02 02:15:13;;;;;;;22.97;8.33;;;;;;;16.59;66.50;100762.91;5084255;28;20024;-73
2023/07/02 02:17:39;;;;;;;27.75;8.43;;;;;;;16.57;66.90;100757.63;5090726;28;20061;-74
2023/07/02 02:20:05;;;;;;;27.37;8.87;;;;;;;16.61;65.93;100760.75;5090601;28;20430;-73
2023/07/02 02:22:31;;;;;;;;;;;;;;;16.62;66.88;100768.81;5091109;28;20032;-73
2023/07/02 02:24:56;;;;;;;28.63;9.32;;;;;;;16.55;67.96;100776.34;5068671;28;19920;-73
2023/07/02 02:27:22;;;;;;;31.47;10.17;;;;;;;16.48;68.57;100772.03;5072442;28;20136;-73
2023/07/02 02:29:47;;;;;;;24.93;9.00;;;;;;;16.40;69.22;100780.66;5089321;28;20368;-73
2023/07/02 02:32:14;;;;;;;26.47;8.57;;;;;;;16.44;69.02;100785.47;5061721;28;20046;-73
2023/07/02 02:34:39;;;;;;;27.85;8.73;;;;;;;16.44;67.74;100779.94;5089282;28;20043;-73
2023/07/02 02:37:05;;;;;;;23.23;8.70;;;;;;;16.33;68.44;100779.91;5070795;28;20032;-73
2023/07/02 02:39:30;;;;;;;21.93;9.27;;;;;;;16.33;68.83;100777.97;5069328;28;20074;-73
2023/07/02 02:41:56;;;;;;;33.77;10.03;;;;;;;16.31;69.15;100787.56;5071020;28;20031;-71
2023/07/02 02:44:22;;;;;;;27.95;9.40;;;;;;;16.28;69.70;100777.00;5088724;28;20077;-71
2023/07/02 02:46:47;;;;;;;27.33;9.30;;;;;;;16.24;70.03;100786.84;5066733;28;20028;-72
2023/07/02 02:49:12;;;;;;;27.33;8.40;;;;;;;16.28;69.92;100793.59;5089985;28;20487;-72
2023/07/02 02:51:40;;;;;;;26.63;8.83;;;;;;;16.29;70.27;100795.25;5089183;28;20028;-72
2023/07/02 02:54:06;;;;;;;23.27;8.45;;;;;;;16.25;70.55;100794.91;5087560;28;20043;-72
2023/07/02 02:56:31;;;;;;;27.70;9.23;;;;;;;16.20;71.33;100791.13;5071409;28;20479;-72
2023/07/02 02:58:56;;;;;;;27.90;10.30;;;;;;;16.24;71.51;100793.22;5086230;28;20020;-72
2023/07/02 03:01:22;;;;;;;28.77;8.97;;;;;;;16.27;71.04;100794.66;5066805;28;20032;-71
2023/07/02 03:03:50;;;;;;;33.97;9.70;;;;;;;16.20;71.95;100791.13;5087058;28;20070;-72
2023/07/02 03:06:15;;;;;;;31.52;9.90;;;;;;;16.16;71.83;100799.06;5087974;28;20032;-72
2023/07/02 03:08:41;;;;;;;28.53;9.60;;;;;;;16.19;71.85;100803.28;5072022;28;20391;-71
2023/07/02 03:11:06;;;;;;;23.13;8.50;;;;;;;16.14;72.02;100798.47;5090152;28;20035;-72
2023/07/02 03:13:32;;;;;;;32.23;9.77;;;;;;;16.16;71.69;100803.75;5069906;28;20060;-72
2023/07/02 03:15:57;;;;;;;27.30;8.53;;;;;;;16.11;72.35;100803.63;5083148;28;20483;-72
2023/07/02 03:18:24;;;;;;;35.83;9.77;;;;;;;16.10;72.89;100807.44;5068000;28;20068;-71
2023/07/02 03:20:49;;;;;;;29.05;9.90;;;;;;;16.02;73.18;100802.25;5089678;28;20106;-72
2023/07/02 03:23:15;;;;;;;26.87;9.13;;;;;;;16.01;73.56;100803.34;5070985;28;20119;-72
2023/07/02 03:25:40;;;;;;;34.73;10.67;;;;;;;15.98;73.26;100806.56;5071318;28;20505;-72
2023/07/02 03:28:06;;;;;;;33.37;9.37;;;;;;;15.92;73.64;100799.19;5089196;28;20053;-72
2023/07/02 03:30:31;;;;;;;23.13;9.33;;;;;;;15.91;74.08;100798.34;5049581;28;20368;-72
2023/07/02 03:32:58;;;;;;;33.90;10.17;;;;;;;15.89;74.28;100805.19;5051963;28;20051;-72
2023/07/02 03:35:23;;;;;;;28.08;8.82;;;;;;;15.87;74.61;100818.38;5087025;28;20043;-71
2023/07/02 03:37:50;;;;;;;25.17;9.20;;;;;;;15.84;74.90;100818.88;5089040;28;20032;-71
2023/07/02 03:40:15;;;;;;;;;;;;;;;15.82;75.05;100821.84;5065358;28;20036;-71
2023/07/02 03:42:43;;;;;;;38.35;9.73;;;;;;;15.74;75.65;100819.41;5087409;28;19923;-71
2023/07/02 03:45:09;;;;;;;26.27;9.48;;;;;;;15.67;76.05;100823.31;5085090;28;21517;-71
2023/07/02 03:47:34;;;;;;;23.43;9.20;;;;;;;15.67;76.62;100812.25;5083735;28;20039;-72
2023/07/02 03:50:01;;;;;;;40.57;10.40;;;;;;;15.63;77.06;100811.06;5088601;28;20032;-72
2023/07/02 03:52:26;;;;;;;27.95;9.50;;;;;;;15.57;77.59;100817.47;5068904;28;20028;-71
2023/07/02 03:54:52;;;;;;;34.43;10.33;;;;;;;15.57;77.79;100829.38;5070496;28;20446;-71
2023/07/02 03:57:17;;;;;;;26.83;8.83;;;;;;;15.56;77.63;100826.84;5074042;28;20032;-72
2023/07/02 03:59:44;;;;;;;27.27;9.70;;;;;;;15.45;78.55;100827.59;5090071;28;20507;-72
2023/07/02 04:02:11;;;;;;;25.73;8.80;;;;;;;15.48;78.43;100835.44;5068876;28;20032;-72
2023/07/02 04:04:36;;;;;;;27.92;10.13;;;;;;;15.51;78.84;100834.97;5092123;28;20024;-72
2023/07/02 04:07:03;;;;;;;32.33;9.60;;;;;;;15.57;78.61;100837.66;5069018;28;20032;-71
2023/07/02 04:09:28;;;;;;;25.90;11.18;;;;;;;15.54;78.53;100846.41;5090103;28;20024;-71
2023/07/02 04:11:53;;;;;;;33.50;9.93;;;;;;;15.58;78.29;100835.75;5074312;28;20572;-72
2023/07/02 04:14:19;;;;;;;28.90;9.90;;;;;;;15.60;78.81;100839.13;5091366;28;20024;-71
2023/07/02 04:16:45;;;;;;;34.57;10.20;;;;;;;15.59;78.67;100842.97;5089706;28;20023;-72
2023/07/02 04:19:10;;;;;;;30.43;10.10;;;;;;;15.58;78.68;100849.56;5069174;28;20080;-71
2023/07/02 04:21:36;;;;;;;34.67;10.07;;;;;;;15.55;79.11;100853.63;5091913;28;20028;-72
2023/07/02 04:24:01;;;;;;;26.83;9.40;;;;;;;15.58;78.27;100844.88;5087146;28;20436;-71
2023/07/02 04:26:27;;;;;;;32.60;9.90;;;;;;;15.59;78.56;100849.31;5065030;28;20051;-72
2023/07/02 04:28:54;;;;;;;33.53;9.67;;;;;;;15.59;79.00;100854.00;5093131;28;20024;-71
2023/07/02 04:31:21;;;;;;;26.50;9.55;;;;;;;15.61;78.74;100857.38;5089207;28;20107;-71
2023/07/02 04:33:46;;;;;;;31.65;10.00;;;;;;;15.67;78.70;100857.31;5071223;28;20402;-72
2023/07/02 04:36:12;;;;;;;33.13;9.27;;;;;;;15.74;78.47;100855.31;5065013;28;20052;-71
2023/07/02 04:38:39;;;;;;;23.77;8.73;;;;;;;15.74;78.81;100862.75;5091628;28;20028;-71
2023/07/02 04:41:05;;;;;;;30.00;9.52;;;;;;;15.74;78.94;100865.53;5066438;28;20016;-71
2023/07/02 04:43:32;;;;;;;28.27;8.95;;;;;;;15.81;78.96;100869.03;5087742;28;20038;-72
2023/07/02 04:45:58;;;;;;;31.67;9.23;;;;;;;15.84;79.03;100863.91;5085733;28;20077;-72
2023/07/02 04:48:23;;;;;;;30.43;9.20;;;;;;;15.97;78.18;100874.81;5074805;28;20028;-71
2023/07/02 04:50:49;;;;;;;26.37;8.87;;;;;;;15.99;78.57;100866.25;5070308;28;20135;-71
2023/07/02 04:53:15;;;;;;;30.93;9.30;;;;;;;16.05;76.94;100874.47;5074752;28;20032;-71
2023/07/02 04:55:41;;;;;;;25.63;8.80;;;;;;;16.20;76.57;100877.69;5090746;28;20823;-72
2023/07/02 04:58:06;;;;;;;32.80;9.00;;;;;;;16.25;76.66;100882.50;5089133;28;20056;-72
2023/07/02 05:00:32;;;;;;;27.87;8.83;;;;;;;16.29;77.35;100892.03;5071663;28;20064;-72
2023/07/02 05:02:57;;;;;;;29.70;9.40;;;;;;;16.26;76.46;100882.28;5089606;28;20070;-72
2023/07/02 05:05:23;;;;;;;29.67;10.33;;;;;;;16.39;76.22;100890.41;5089163;28;20602;-71
2023/07/02 05:07:48;;;;;;;21.60;9.50;;;;;;;16.41;75.75;100879.13;5091391;28;20035;-72
2023/07/02 05:10:14;;;;;;;24.13;9.33;;;;;;;16.50;74.97;100874.94;5091782;28;20115;-72
2023/07/02 05:12:40;;;;;;;21.87;8.07;;;;;;;16.50;74.83;100883.25;5090744;28;20036;-72
2023/07/02 05:15:06;;;;;;;27.87;8.23;;;;;;;16.55;74.93;100886.97;5072320;28;20086;-71
2023/07/02 05:17:34;;;;;;;23.88;8.18;;;;;;;16.49;75.06;100881.56;5072555;28;20461;-71
2023/07/02 05:20:00;;;;;;;29.73;8.60;;;;;;;16.54;74.89;100882.53;5067380;28;20455;-73
2023/07/02 05:22:26;;;;;;;20.30;8.27;;;;;;;16.62;74.54;100890.50;5072907;28;20122;-72
2023/07/02 05:24:51;;;;;;;25.23;6.63;;;;;;;16.69;74.33;100891.25;5069342;28;20114;-72
2023/07/02 05:27:17;;;;;;;23.17;7.93;;;;;;;16.76;74.46;100896.69;5087048;28;20035;-72
2023/07/02 05:29:43;;;;;;;24.43;7.80;;;;;;;16.75;73.64;100892.25;5090358;28;20032;-72
2023/07/02 05:32:08;;;;;;;19.67;6.97;;;;;;;16.82;72.89;100892.97;5085459;28;20036;-71
2023/07/02 05:34:34;;;;;;;23.30;6.30;;;;;;;16.79;72.34;100904.50;5053955;28;20173;-71
2023/07/02 05:37:00;;;;;;;22.20;7.28;;;;;;;16.87;72.33;100898.66;5088662;28;20043;-72
2023/07/02 05:39:25;;;;;;;23.60;7.07;;;;;;;16.87;71.66;100896.69;5070222;28;20501;-72
2023/07/02 05:41:51;;;;;;;16.67;6.37;;;;;;;16.91;71.06;100905.41;5090539;28;20036;-71
2023/07/02 05:44:16;;;;;;;20.73;6.57;;;;;;;17.05;71.51;100907.72;5090870;28;20058;-71
2023/07/02 05:46:42;;;;;;;22.97;7.43;;;;;;;17.10;70.67;100912.53;5068545;28;20062;-71
2023/07/02 05:49:08;;;;;;;22.43;7.63;;;;;;;17.09;70.70;100917.22;5087233;28;20035;-72
2023/07/02 05:51:33;;;;;;;21.47;6.90;;;;;;;17.18;71.52;100914.97;5088234;28;20541;-72
2023/07/02 05:53:58;;;;;;;21.70;6.60;;;;;;;17.18;71.82;100914.97;5089879;28;20036;-72
2023/07/02 05:56:24;;;;;;;20.73;7.47;;;;;;;17.25;71.53;100924.84;5090356;28;20101;-73
2023/07/02 05:58:50;;;;;;;25.83;7.77;;;;;;;17.26;71.99;100925.66;5084746;28;20032;-72
2023/07/02 06:01:15;;;;;;;22.93;7.73;;;;;;;17.26;71.74;100928.44;5054178;28;20038;-72
2023/07/02 06:03:43;;;;;;;23.37;7.93;;;;;;;17.27;71.27;100914.34;5089909;28;20101;-72
2023/07/02 06:06:09;;;;;;;29.83;8.40;;;;;;;17.31;72.17;100918.34;5089392;28;20019;-72
2023/07/02 06:08:34;;;;;;;28.60;7.97;;;;;;;17.37;72.15;100927.59;5069293;28;20447;-72
2023/07/02 06:10:59;;;;;;;24.40;7.20;;;;;;;17.38;71.88;100926.50;5088375;28;20154;-72
2023/07/02 06:13:25;;;;;;;20.17;7.70;;;;;;;17.47;72.17;100927.88;5087839;28;20028;-72
2023/07/02 06:15:50;;;;;;;18.93;7.30;;;;;;;17.36;72.41;100935.09;5083607;28;20523;-72
2023/07/02 06:18:17;;;;;;;22.17;7.70;;;;;;;17.42;72.42;100936.06;5087828;28;20107;-72
2023/07/02 06:20:42;;;;;;;22.15;8.02;;;;;;;17.34;73.10;100933.63;5089482;28;20024;-72
2023/07/02 06:23:08;;;;;;;26.37;8.53;;;;;;;17.31;73.44;100947.94;5090218;28;20031;-72
2023/07/02 06:25:33;;;;;;;21.27;7.57;;;;;;;17.50;73.38;100953.19;5073149;28;20050;-72
2023/07/02 06:27:59;;;;;;;29.47;8.23;;;;;;;17.57;72.70;100953.06;5056122;28;20055;-71
2023/07/02 06:30:26;;;;;;;21.83;6.53;;;;;;;17.55;71.02;100946.94;5087544;28;20043;-72
2023/07/02 06:32:51;;;;;;;23.50;7.97;;;;;;;17.73;70.39;100949.56;5088264;28;20028;-71
2023/07/02 06:35:16;;;;;;;16.33;7.10;;;;;;;17.98;70.04;100948.22;5086630;28;20063;-72
2023/07/02 06:37:42;;;;;;;19.97;6.97;;;;;;;18.13;67.64;100950.50;5088858;28;20433;-71
2023/07/02 06:40:08;;;;;;;20.37;6.57;;;;;;;18.27;67.30;100949.16;5065605;28;20028;-71
2023/07/02 06:42:35;;;;;;;23.83;7.17;;;;;;;18.22;67.30;100958.22;5066028;28;20438;-72
2023/07/02 06:45:01;;;;;;;24.10;6.75;;;;;;;18.16;67.90;100955.56;5063862;28;20034;-72
2023/07/02 06:47:27;;;;;;;24.15;7.93;;;;;;;18.17;66.92;100965.56;5085816;28;20111;-72
2023/07/02 06:49:53;;;;;;;19.17;7.27;;;;;;;18.20;67.58;100957.59;5083852;28;20494;-72
2023/07/02 06:52:18;;;;;;;21.08;7.18;;;;;;;18.14;66.86;100977.97;5084506;28;20089;-71
2023/07/02 06:54:44;;;;;;;23.00;6.80;;;;;;;18.20;65.76;100970.63;5086175;28;20488;-72
2023/07/02 06:57:09;;;;;;;16.47;6.10;;;;;;;18.43;64.69;100973.38;5085499;28;20115;-72
2023/07/02 06:59:34;;;;;;;22.33;6.80;;;;;;;18.51;63.75;100984.09;5090427;28;20047;-72
2023/07/02 07:02:01;;;;;;;19.33;7.13;;;;;;;18.71;62.84;100982.59;5086008;28;20039;-72
2023/07/02 07:04:28;;;;;;;22.40;7.40;;;;;;;19.00;62.31;100980.66;5063269;28;20543;-71
2023/07/02 07:06:55;;;;;;;;;;;;;;;19.22;61.28;100990.81;5062476;28;20093;-71
2023/07/02 07:09:21;;;;;;;17.38;6.85;;;;;;;18.88;61.86;100989.03;5085111;28;19916;-71
2023/07/02 07:11:46;;;;;;;20.20;7.25;;;;;;;19.02;61.02;100993.19;5089089;28;20040;-70
2023/07/02 07:14:12;;;;;;;23.60;7.20;;;;;;;19.82;60.74;100991.00;5089833;28;20034;-71
2023/07/02 07:16:37;;;;;;;16.70;6.90;;;;;;;19.45;58.60;101003.72;5090871;28;20031;-71
2023/07/02 07:19:03;;;;;;;21.23;6.47;;;;;;;19.61;57.63;100998.19;5069914;28;20024;-70
2023/07/02 07:21:28;;;;;;;17.20;6.87;;;;;;;19.64;57.83;101006.00;5088475;28;20082;-71
2023/07/02 07:23:55;;;;;;;21.10;7.07;;;;;;;19.41;57.35;101008.09;5088442;28;20077;-71
2023/07/02 07:26:21;;;;;;;17.92;6.90;;;;;;;19.26;57.39;101003.09;5072827;28;20031;-71
2023/07/02 07:28:46;;;;;;;16.43;7.07;;;;;;;19.42;56.63;101018.13;5083990;28;20090;-71
2023/07/02 07:31:11;;;;;;;23.60;7.73;;;;;;;19.32;56.36;101013.22;5087662;28;20035;-71
2023/07/02 07:33:37;;;;;;;19.00;6.13;;;;;;;19.39;56.99;101013.06;5088122;28;20039;-72
2023/07/02 07:36:04;;;;;;;22.70;6.75;;;;;;;19.32;57.10;101016.00;5087259;28;20549;-71
2023/07/02 07:38:29;;;;;;;14.73;6.40;;;;;;;19.49;56.36;101019.66;5070241;28;20036;-72
2023/07/02 07:40:56;;;;;;;17.53;6.40;;;;;;;19.71;56.07;101017.81;5082359;28;20028;-72
2023/07/02 07:43:22;;;;;;;12.65;5.40;;;;;;;20.44;54.50;101023.97;5070824;28;20131;-72
2023/07/02 07:45:50;;;;;;;24.83;8.30;;;;;;;20.83;54.24;101019.19;5069533;28;20118;-71
2023/07/02 07:48:15;;;;;;;20.15;6.15;;;;;;;20.13;54.42;101023.78;5085565;28;20036;-70
2023/07/02 07:50:41;;;;;;;21.43;7.17;;;;;;;20.12;54.44;101022.94;5083980;28;20074;-71
2023/07/02 07:53:06;;;;;;;17.70;6.60;;;;;;;19.88;55.14;101024.22;5087696;28;20399;-71
2023/07/02 07:55:32;;;;;;;16.70;5.60;;;;;;;20.57;54.07;101042.25;5084974;28;20386;-70
2023/07/02 07:57:57;;;;;;;19.77;6.17;;;;;;;19.88;54.98;101038.13;5064667;28;20439;-71
2023/07/02 08:00:24;;;;;;;14.33;5.67;;;;;;;19.79;56.22;101019.34;5068976;28;20032;-71
2023/07/02 08:02:52;;;;;;;18.90;6.28;;;;;;;20.27;54.37;101036.25;5063398;28;20032;-71
2023/07/02 08:05:17;;;;;;;19.00;6.55;;;;;;;20.41;53.50;101045.91;5089556;28;20028;-71
2023/07/02 08:07:43;;;;;;;17.90;6.23;;;;;;;20.82;52.96;101037.81;5072634;28;20027;-71
2023/07/02 08:10:09;;;;;;;17.67;5.97;;;;;;;20.95;52.63;101031.91;5091004;28;20292;-71
2023/07/02 08:12:35;;;;;;;22.17;7.32;;;;;;;21.04;51.93;101037.88;5087968;28;20031;-71
2023/07/02 08:15:00;;;;;;;18.20;6.53;;;;;;;21.13;51.30;101039.09;5089555;28;20036;-71
2023/07/02 08:17:26;;;;;;;15.87;5.87;;;;;;;20.95;50.83;101048.63;5070697;28;20054;-71
2023/07/02 08:19:51;;;;;;;18.60;6.17;;;;;;;21.13;51.11;101044.66;5059712;28;20059;-69
2023/07/02 08:22:17;;;;;;;13.10;6.17;;;;;;;20.93;51.79;101050.84;5079524;28;20040;-71
2023/07/02 08:24:42;;;;;;;17.30;5.80;;;;;;;20.78;51.25;101049.75;5086986;28;20120;-71
2023/07/02 08:27:08;;;;;;;14.27;6.13;;;;;;;21.08;51.04;101048.22;5075637;28;20039;-71
2023/07/02 08:29:34;;;;;;;14.43;6.60;;;;;;;20.50;51.72;101045.19;5077434;28;20718;-71
2023/07/02 08:31:59;;;;;;;14.13;6.30;;;;;;;20.81;48.55;101043.69;5061529;28;20086;-73
2023/07/02 08:34:25;;;;;;;15.83;6.57;;;;;;;21.05;48.89;101043.19;5081117;28;20032;-71
2023/07/02 08:36:51;;;;;;;18.27;7.23;;;;;;;20.74;50.36;101045.81;5075932;28;20392;-70
2023/07/02 08:39:17;;;;;;;13.80;6.50;;;;;;;20.52;51.54;101044.94;5060230;28;20036;-71
2023/07/02 08:41:44;;;;;;;19.25;6.65;;;;;;;20.69;51.51;101042.94;5084365;28;20093;-71
2023/07/02 08:44:11;;;;;;;20.80;7.45;;;;;;;20.98;52.09;101041.69;5071476;28;20059;-71
2023/07/02 08:46:38;;;;;;;16.40;6.25;;;;;;;21.54;50.36;101041.19;5088888;28;20060;-71
2023/07/02 08:49:03;;;;;;;15.70;5.40;;;;;;;21.17;48.23;101041.09;5092220;28;20420;-69
2023/07/02 08:51:29;;;;;;;15.70;6.10;;;;;;;21.04;45.31;101051.78;5089876;28;20032;-70
2023/07/02 08:53:54;;;;;;;12.70;5.40;;;;;;;20.90;45.01;101050.50;5086964;28;20024;-72
2023/07/02 08:56:20;;;;;;;15.83;5.60;;;;;;;20.90;43.91;101061.63;5089790;28;20032;-71
2023/07/02 08:58:45;;;;;;;18.90;4.90;;;;;;;21.28;43.36;101061.56;5052759;28;20533;-71
2023/07/02 09:01:13;;;;;;;12.77;5.10;;;;;;;21.50;42.53;101063.16;5087650;28;20078;-73
2023/07/02 09:03:39;;;;;;;7.97;4.53;;;;;;;21.41;41.44;101072.28;5087183;28;20391;-72
2023/07/02 09:06:09;;;;;;;13.13;5.32;;;;;;;21.34;41.60;101066.91;5089549;28;20024;-71
2023/07/02 09:08:35;;;;;;;13.57;4.97;;;;;;;21.59;40.80;101064.38;5087774;28;20032;-70
2023/07/02 09:11:07;;;;;;;8.43;3.85;;;;;;;21.48;41.32;101075.69;5086194;28;20399;-70
2023/07/02 09:13:44;;;;;;;10.77;4.50;;;;;;;21.43;40.16;101084.00;5086226;28;20028;-71
2023/07/02 09:16:26;;;;;;;12.85;4.20;;;;;;;21.67;38.72;101071.44;5090032;28;20035;-70
2023/07/02 09:19:07;;;;;;;9.98;4.00;;;;;;;21.47;40.23;101080.44;5091977;28;20479;-71
2023/07/02 09:21:49;;;;;;;7.47;3.95;;;;;;;21.66;39.40;101080.91;5089134;28;20430;-71
2023/07/02 09:24:22;;;;;;;14.95;4.03;;;;;;;21.77;40.09;101063.19;5071166;28;20042;-70
2023/07/02 09:26:53;;;;;;;11.45;3.90;;;;;;;22.42;40.38;101066.50;5091384;28;20178;-69
2023/07/02 09:29:23;;;;;;;15.10;3.95;;;;;;;22.28;39.53;101068.06;5087623;28;20475;-70
2023/07/02 09:31:49;;;;;;;14.75;3.88;;;;;;;22.05;38.61;101055.34;5088866;28;20043;-69
2023/07/02 09:34:14;;;;;;;9.20;4.45;;;;;;;22.38;39.02;101070.94;5092085;28;20032;-70
2023/07/02 09:36:41;;;;;;;12.07;4.13;;;;;;;22.34;39.70;101066.97;5070465;28;20048;-70
2023/07/02 09:39:25;;;;;;;9.35;3.90;;;;;;;22.27;39.64;101069.19;5071385;28;20049;-69
2023/07/02 09:41:51;;;;;;;9.10;4.20;;;;;;;22.21;39.50;101062.72;5073016;28;20036;-70
2023/07/02 09:44:17;;;;;;;12.55;4.38;;;;;;;22.21;40.03;101059.94;5073064;28;20016;-69
2023/07/02 09:46:57;;;;;;;14.27;3.97;;;;;;;22.35;39.94;101074.28;5069591;28;20082;-70
2023/07/02 09:49:24;;;;;;;8.02;3.17;;;;;;;22.33;39.93;101068.09;5068459;28;20024;-71
2023/07/02 09:51:50;;;;;;;11.05;3.80;;;;;;;22.54;40.16;101072.75;5072060;28;20025;-70
2023/07/02 09:54:16;;;;;;;8.02;3.58;;;;;;;22.55;38.95;101080.00;5066099;28;20043;-71
2023/07/02 09:56:43;;;;;;;9.27;4.13;;;;;;;22.57;38.25;101075.81;5070942;28;20040;-71
2023/07/02 09:59:09;;;;;;;8.55;3.33;;;;;;;21.90;38.61;101069.19;5070657;28;20073;-70
2023/07/02 10:01:34;;;;;;;7.67;3.70;;;;;;;22.11;37.88;101070.16;5071513;28;20381;-70
2023/07/02 10:04:11;;;;;;;7.63;4.60;;;;;;;21.95;37.31;101091.53;5070781;28;20040;-70
2023/07/02 10:06:57;;;;;;;8.27;3.70;;;;;;;22.13;37.84;101079.09;5070681;28;20510;-69
2023/07/02 10:09:39;;;;;;;8.88;4.07;;;;;;;22.64;36.74;101076.44;5065659;28;20403;-70
2023/07/02 10:12:17;;;;;;;10.50;4.13;;;;;;;22.27;35.68;101094.31;5069580;28;20035;-69
2023/07/02 10:14:43;;;;;;;11.77;3.60;;;;;;;22.31;34.56;101087.91;5070328;28;20465;-70
2023/07/02 10:17:09;;;;;;;;;;;;;;;22.47;35.83;101089.72;5071710;28;20569;-72
2023/07/02 10:19:34;;;;;;;10.25;3.83;;;;;;;22.99;36.10;101106.53;5070166;28;19919;-72
2023/07/02 10:22:02;;;;;;;8.07;3.90;;;;;;;22.77;35.05;101105.81;5072352;28;20020;-71
2023/07/02 10:24:27;;;;;;;7.95;3.80;;;;;;;23.06;35.59;101107.09;5071424;28;20052;-71
2023/07/02 10:27:01;;;;;;;6.40;3.50;;;;;;;23.07;36.32;101084.47;5070902;28;20071;-71
2023/07/02 10:29:28;;;;;;;6.90;3.97;;;;;;;23.00;33.94;101103.44;5071859;28;20474;-71
2023/07/02 10:31:57;;;;;;;9.63;3.55;;;;;;;22.35;35.26;101094.63;5070966;28;20085;-71
2023/07/02 10:34:34;;;;;;;9.57;4.25;;;;;;;23.12;34.69;101106.88;5067769;28;20503;-70
2023/07/02 10:37:01;;;;;;;8.57;4.43;;;;;;;23.10;35.61;101108.25;5081735;28;20044;-70
2023/07/02 10:39:29;;;;;;;8.65;4.07;;;;;;;22.73;36.90;101099.94;5063491;28;20044;-70
2023/07/02 10:42:04;;;;;;;8.45;3.28;;;;;;;22.39;37.21;101103.31;5070877;28;20023;-70
2023/07/02 10:44:29;;;;;;;6.80;3.80;;;;;;;22.04;36.29;101114.22;5091055;28;20050;-71
2023/07/02 10:46:55;;;;;;;10.00;3.93;;;;;;;21.41;37.58;101108.53;5090539;28;20020;-69
2023/07/02 10:49:29;;;;;;;8.13;4.15;;;;;;;22.15;37.42;101110.41;5065417;28;20090;-70
2023/07/02 10:51:59;;;;;;;10.82;3.92;;;;;;;23.03;36.67;101110.44;5089596;28;20483;-70
2023/07/02 10:54:25;;;;;;;8.07;3.90;;;;;;;22.62;35.33;101111.34;5089149;28;20077;-70
2023/07/02 10:56:55;;;;;;;18.17;4.90;;;;;;;23.32;35.98;101112.53;5089766;28;20028;-70
2023/07/02 10:59:27;;;;;;;15.20;4.07;;;;;;;23.21;35.50;101113.63;5070748;28;20652;-71
2023/07/02 11:01:52;;;;;;;12.32;4.05;;;;;;;23.51;36.88;101113.72;5089561;28;20020;-70
2023/07/02 11:04:18;;;;;;;14.43;4.50;;;;;;;22.51;37.73;101098.44;5089759;28;20044;-71
2023/07/02 11:06:43;;;;;;;12.67;4.70;;;;;;;23.47;37.30;101100.59;5090762;28;20023;-71
2023/07/02 11:09:20;;;;;;;12.17;4.10;;;;;;;22.80;37.60;101110.88;5071671;28;20036;-70
2023/07/02 11:12:04;;;;;;;8.02;4.57;;;;;;;22.19;37.61;101115.16;5085528;28;20020;-70
2023/07/02 11:14:34;;;;;;;8.40;3.85;;;;;;;22.70;36.99;101127.56;5085791;28;20507;-70
2023/07/02 11:17:03;;;;;;;9.75;4.07;;;;;;;22.70;38.42;101120.06;5087540;28;20027;-70